sensor_id;sensor_type;location;lat;lon;timestamp;temperature;humidity
46458;DHT22;32155;54.076;12.092;2024-01-25T00:02:02;7.90;99.90
46458;DHT22;32155;54.076;12.092;2024-01-25T00:04:28;7.90;99.90
46458;DHT22;32155;54.076;12.092;2024-01-25T00:06:56;7.90;99.90
46458;DHT22;32155;54.076;12.092;2024-01-25T00:09:24;7.90;99.90
46458;DHT22;32155;54.076;12.092;2024-01-25T00:11:49;7.90;99.90
46458;DHT22;32155;54.076;12.092;2024-01-25T00:14:14;7.90;99.90
46458;DHT22;32155;54.076;12.092;2024-01-25T00:16:41;7.90;99.90
46458;DHT22;32155;54.076;12.092;2024-01-25T00:19:07;7.90;99.90
46458;DHT22;32155;54.076;12.092;2024-01-25T00:21:32;7.90;99.90
46458;DHT22;32155;54.076;12.092;2024-01-25T00:23:58;7.90;99.90
46458;DHT22;32155;54.076;12.092;2024-01-25T00:26:23;7.90;99.90
46458;DHT22;32155;54.076;12.092;2024-01-25T00:28:51;7.90;99.90
46458;DHT22;32155;54.076;12.092;2024-01-25T00:31:17;7.90;99.90
46458;DHT22;32155;54.076;12.092;2024-01-25T00:33:42;7.90;99.90
46458;DHT22;32155;54.076;12.092;2024-01-25T00:36:08;7.90;99.90
46458;DHT22;32155;54.076;12.092;2024-01-25T00:38:34;7.90;99.90
46458;DHT22;32155;54.076;12.092;2024-01-25T00:40:59;7.90;99.90
46458;DHT22;32155;54.076;12.092;2024-01-25T00:43:25;7.90;99.90
46458;DHT22;32155;54.076;12.092;2024-01-25T00:45:51;7.90;99.90
46458;DHT22;32155;54.076;12.092;2024-01-25T00:48:17;7.90;99.90
46458;DHT22;32155;54.076;12.092;2024-01-25T00:50:42;7.90;99.90
46458;DHT22;32155;54.076;12.092;2024-01-25T00:53:10;7.90;99.90
46458;DHT22;32155;54.076;12.092;2024-01-25T00:55:36;7.90;99.90
46458;DHT22;32155;54.076;12.092;2024-01-25T00:58:02;7.90;99.90
46458;DHT22;32155;54.076;12.092;2024-01-25T01:00:28;7.90;99.90
46458;DHT22;32155;54.076;12.092;2024-01-25T01:02:53;7.90;99.90
46458;DHT22;32155;54.076;12.092;2024-01-25T01:05:19;7.90;99.90
46458;DHT22;32155;54.076;12.092;2024-01-25T01:07:45;7.90;99.90
46458;DHT22;32155;54.076;12.092;2024-01-25T01:10:11;7.90;99.90
46458;DHT22;32155;54.076;12.092;2024-01-25T01:12:36;8.00;99.90
46458;DHT22;32155;54.076;12.092;2024-01-25T01:15:02;7.90;99.90
46458;DHT22;32155;54.076;12.092;2024-01-25T01:17:27;8.00;99.90
46458;DHT22;32155;54.076;12.092;2024-01-25T01:19:53;8.00;99.90
46458;DHT22;32155;54.076;12.092;2024-01-25T01:22:18;8.00;99.90
46458;DHT22;32155;54.076;12.092;2024-01-25T01:24:44;8.00;99.90
46458;DHT22;32155;54.076;12.092;2024-01-25T01:27:10;8.00;99.90
46458;DHT22;32155;54.076;12.092;2024-01-25T01:29:37;7.90;99.90
46458;DHT22;32155;54.076;12.092;2024-01-25T01:32:03;8.00;99.90
46458;DHT22;32155;54.076;12.092;2024-01-25T01:34:29;7.90;99.90
46458;DHT22;32155;54.076;12.092;2024-01-25T01:36:54;7.90;99.90
46458;DHT22;32155;54.076;12.092;2024-01-25T01:39:20;8.00;99.90
46458;DHT22;32155;54.076;12.092;2024-01-25T01:41:48;8.00;99.90
46458;DHT22;32155;54.076;12.092;2024-01-25T01:44:14;7.90;99.90
46458;DHT22;32155;54.076;12.092;2024-01-25T01:46:40;7.90;99.90
46458;DHT22;32155;54.076;12.092;2024-01-25T01:49:11;7.90;99.90
46458;DHT22;32155;54.076;12.092;2024-01-25T01:51:36;7.90;99.90
46458;DHT22;32155;54.076;12.092;2024-01-25T01:54:03;7.90;99.90
46458;DHT22;32155;54.076;12.092;2024-01-25T01:56:31;7.90;99.90
46458;DHT22;32155;54.076;12.092;2024-01-25T01:58:57;7.80;99.90
46458;DHT22;32155;54.076;12.092;2024-01-25T02:01:24;7.80;99.90
46458;DHT22;32155;54.076;12.092;2024-01-25T02:03:49;7.90;99.90
46458;DHT22;32155;54.076;12.092;2024-01-25T02:06:15;7.80;99.90
46458;DHT22;32155;54.076;12.092;2024-01-25T02:08:40;7.80;99.90
46458;DHT22;32155;54.076;12.092;2024-01-25T02:11:06;7.80;99.90
46458;DHT22;32155;54.076;12.092;2024-01-25T02:13:33;7.80;99.90
46458;DHT22;32155;54.076;12.092;2024-01-25T02:15:58;7.70;99.90
46458;DHT22;32155;54.076;12.092;2024-01-25T02:18:24;7.70;99.90
46458;DHT22;32155;54.076;12.092;2024-01-25T02:20:50;7.80;99.90
46458;DHT22;32155;54.076;12.092;2024-01-25T02:23:15;7.80;99.90
46458;DHT22;32155;54.076;12.092;2024-01-25T02:25:44;7.80;99.90
46458;DHT22;32155;54.076;12.092;2024-01-25T02:28:09;7.80;99.90
46458;DHT22;32155;54.076;12.092;2024-01-25T02:30:37;7.80;99.90
46458;DHT22;32155;54.076;12.092;2024-01-25T02:33:03;7.80;99.90
46458;DHT22;32155;54.076;12.092;2024-01-25T02:35:28;7.80;99.90
46458;DHT22;32155;54.076;12.092;2024-01-25T02:37:56;7.80;99.90
46458;DHT22;32155;54.076;12.092;2024-01-25T02:40:25;7.80;99.90
46458;DHT22;32155;54.076;12.092;2024-01-25T02:42:51;7.80;99.90
46458;DHT22;32155;54.076;12.092;2024-01-25T02:45:16;7.80;99.90
46458;DHT22;32155;54.076;12.092;2024-01-25T02:47:42;7.80;99.90
46458;DHT22;32155;54.076;12.092;2024-01-25T02:50:07;7.80;99.90
46458;DHT22;32155;54.076;12.092;2024-01-25T02:52:33;7.80;99.90
46458;DHT22;32155;54.076;12.092;2024-01-25T02:54:59;7.80;99.90
46458;DHT22;32155;54.076;12.092;2024-01-25T02:57:27;7.70;99.90
46458;DHT22;32155;54.076;12.092;2024-01-25T02:59:52;7.70;99.90
46458;DHT22;32155;54.076;12.092;2024-01-25T03:02:18;7.70;99.90
46458;DHT22;32155;54.076;12.092;2024-01-25T03:04:46;7.70;99.90
46458;DHT22;32155;54.076;12.092;2024-01-25T03:07:12;7.70;99.90
46458;DHT22;32155;54.076;12.092;2024-01-25T03:09:43;7.80;99.90
46458;DHT22;32155;54.076;12.092;2024-01-25T03:12:09;7.70;99.90
46458;DHT22;32155;54.076;12.092;2024-01-25T03:14:35;7.70;99.90
46458;DHT22;32155;54.076;12.092;2024-01-25T03:17:01;7.60;99.90
46458;DHT22;32155;54.076;12.092;2024-01-25T03:19:27;7.60;99.90
46458;DHT22;32155;54.076;12.092;2024-01-25T03:21:52;7.60;99.90
46458;DHT22;32155;54.076;12.092;2024-01-25T03:24:20;7.60;99.90
46458;DHT22;32155;54.076;12.092;2024-01-25T03:26:49;7.60;99.90
46458;DHT22;32155;54.076;12.092;2024-01-25T03:29:15;7.60;99.90
46458;DHT22;32155;54.076;12.092;2024-01-25T03:31:41;7.60;99.90
46458;DHT22;32155;54.076;12.092;2024-01-25T03:34:06;7.60;99.90
46458;DHT22;32155;54.076;12.092;2024-01-25T03:36:32;7.70;99.90
46458;DHT22;32155;54.076;12.092;2024-01-25T03:38:58;7.70;99.90
46458;DHT22;32155;54.076;12.092;2024-01-25T03:41:26;7.70;99.90
46458;DHT22;32155;54.076;12.092;2024-01-25T03:43:54;7.70;99.90
46458;DHT22;32155;54.076;12.092;2024-01-25T03:46:19;7.70;99.90
46458;DHT22;32155;54.076;12.092;2024-01-25T03:48:47;7.60;99.90
46458;DHT22;32155;54.076;12.092;2024-01-25T03:51:13;7.60;99.90
46458;DHT22;32155;54.076;12.092;2024-01-25T03:53:38;7.60;99.90
46458;DHT22;32155;54.076;12.092;2024-01-25T03:56:10;7.60;99.90
46458;DHT22;32155;54.076;12.092;2024-01-25T03:58:35;7.60;99.90
46458;DHT22;32155;54.076;12.092;2024-01-25T04:01:01;7.60;99.90
46458;DHT22;32155;54.076;12.092;2024-01-25T04:03:26;7.60;99.90
46458;DHT22;32155;54.076;12.092;2024-01-25T04:05:52;7.50;99.90
46458;DHT22;32155;54.076;12.092;2024-01-25T04:08:17;7.60;99.90
46458;DHT22;32155;54.076;12.092;2024-01-25T04:10:43;7.60;99.90
46458;DHT22;32155;54.076;12.092;2024-01-25T04:13:09;7.60;99.90
46458;DHT22;32155;54.076;12.092;2024-01-25T04:15:36;7.60;99.90
46458;DHT22;32155;54.076;12.092;2024-01-25T04:18:02;7.50;99.90
46458;DHT22;32155;54.076;12.092;2024-01-25T04:20:30;7.50;99.90
46458;DHT22;32155;54.076;12.092;2024-01-25T04:22:56;7.60;99.90
46458;DHT22;32155;54.076;12.092;2024-01-25T04:25:22;7.60;99.90
46458;DHT22;32155;54.076;12.092;2024-01-25T04:27:51;7.60;99.90
46458;DHT22;32155;54.076;12.092;2024-01-25T04:30:46;7.60;99.90
46458;DHT22;32155;54.076;12.092;2024-01-25T04:33:11;7.60;99.90
46458;DHT22;32155;54.076;12.092;2024-01-25T04:35:40;7.60;99.90
46458;DHT22;32155;54.076;12.092;2024-01-25T04:38:05;7.60;99.90
46458;DHT22;32155;54.076;12.092;2024-01-25T04:40:31;7.60;99.90
46458;DHT22;32155;54.076;12.092;2024-01-25T04:43:00;7.60;99.90
46458;DHT22;32155;54.076;12.092;2024-01-25T04:45:35;7.60;99.90
46458;DHT22;32155;54.076;12.092;2024-01-25T04:48:01;7.50;99.90
46458;DHT22;32155;54.076;12.092;2024-01-25T04:50:27;7.50;99.90
46458;DHT22;32155;54.076;12.092;2024-01-25T04:52:52;7.50;99.90
46458;DHT22;32155;54.076;12.092;2024-01-25T04:55:20;7.50;99.90
46458;DHT22;32155;54.076;12.092;2024-01-25T04:57:46;7.50;99.90
46458;DHT22;32155;54.076;12.092;2024-01-25T05:00:13;7.40;99.90
46458;DHT22;32155;54.076;12.092;2024-01-25T05:02:39;7.40;99.90
46458;DHT22;32155;54.076;12.092;2024-01-25T05:05:05;7.40;99.90
46458;DHT22;32155;54.076;12.092;2024-01-25T05:07:30;7.40;99.90
46458;DHT22;32155;54.076;12.092;2024-01-25T05:09:56;7.30;99.90
46458;DHT22;32155;54.076;12.092;2024-01-25T05:12:22;7.30;99.90
46458;DHT22;32155;54.076;12.092;2024-01-25T05:14:48;7.30;99.90
46458;DHT22;32155;54.076;12.092;2024-01-25T05:17:13;7.30;99.90
46458;DHT22;32155;54.076;12.092;2024-01-25T05:19:39;7.30;99.90
46458;DHT22;32155;54.076;12.092;2024-01-25T05:22:05;7.20;99.90
46458;DHT22;32155;54.076;12.092;2024-01-25T05:24:33;7.30;99.90
46458;DHT22;32155;54.076;12.092;2024-01-25T05:26:59;7.30;99.90
46458;DHT22;32155;54.076;12.092;2024-01-25T05:29:25;7.20;99.90
46458;DHT22;32155;54.076;12.092;2024-01-25T05:31:50;7.20;99.90
46458;DHT22;32155;54.076;12.092;2024-01-25T05:34:16;7.20;99.90
46458;DHT22;32155;54.076;12.092;2024-01-25T05:36:44;7.20;99.90
46458;DHT22;32155;54.076;12.092;2024-01-25T05:39:12;7.20;99.90
46458;DHT22;32155;54.076;12.092;2024-01-25T05:41:38;7.20;99.90
46458;DHT22;32155;54.076;12.092;2024-01-25T05:44:04;7.20;99.90
46458;DHT22;32155;54.076;12.092;2024-01-25T05:46:30;7.20;99.90
46458;DHT22;32155;54.076;12.092;2024-01-25T05:48:55;7.10;99.90
46458;DHT22;32155;54.076;12.092;2024-01-25T05:51:21;7.10;99.90
46458;DHT22;32155;54.076;12.092;2024-01-25T05:53:47;7.10;99.90
46458;DHT22;32155;54.076;12.092;2024-01-25T05:56:12;7.10;99.90
46458;DHT22;32155;54.076;12.092;2024-01-25T05:58:38;7.10;99.90
46458;DHT22;32155;54.076;12.092;2024-01-25T06:01:04;7.10;99.90
46458;DHT22;32155;54.076;12.092;2024-01-25T06:03:32;7.00;99.90
46458;DHT22;32155;54.076;12.092;2024-01-25T06:05:57;7.00;99.90
46458;DHT22;32155;54.076;12.092;2024-01-25T06:08:23;6.90;99.90
46458;DHT22;32155;54.076;12.092;2024-01-25T06:10:49;6.90;99.90
46458;DHT22;32155;54.076;12.092;2024-01-25T06:13:17;6.80;99.90
46458;DHT22;32155;54.076;12.092;2024-01-25T06:15:46;6.80;99.90
46458;DHT22;32155;54.076;12.092;2024-01-25T06:18:11;6.70;99.90
46458;DHT22;32155;54.076;12.092;2024-01-25T06:20:37;6.70;99.90
46458;DHT22;32155;54.076;12.092;2024-01-25T06:23:02;6.60;99.90
46458;DHT22;32155;54.076;12.092;2024-01-25T06:25:28;6.70;99.90
46458;DHT22;32155;54.076;12.092;2024-01-25T06:27:56;6.70;99.90
46458;DHT22;32155;54.076;12.092;2024-01-25T06:30:31;6.80;99.90
46458;DHT22;32155;54.076;12.092;2024-01-25T06:32:57;6.80;99.90
46458;DHT22;32155;54.076;12.092;2024-01-25T06:35:23;6.80;99.90
46458;DHT22;32155;54.076;12.092;2024-01-25T06:37:48;6.80;99.90
46458;DHT22;32155;54.076;12.092;2024-01-25T06:40:14;6.80;99.90
46458;DHT22;32155;54.076;12.092;2024-01-25T06:42:40;6.80;99.90
46458;DHT22;32155;54.076;12.092;2024-01-25T06:45:06;6.80;99.90
46458;DHT22;32155;54.076;12.092;2024-01-25T06:47:31;6.80;99.90
46458;DHT22;32155;54.076;12.092;2024-01-25T06:49:57;6.80;99.90
46458;DHT22;32155;54.076;12.092;2024-01-25T06:52:22;6.80;99.90
46458;DHT22;32155;54.076;12.092;2024-01-25T06:54:48;6.90;99.90
46458;DHT22;32155;54.076;12.092;2024-01-25T06:57:13;6.80;99.90
46458;DHT22;32155;54.076;12.092;2024-01-25T06:59:39;6.90;99.90
46458;DHT22;32155;54.076;12.092;2024-01-25T07:02:05;6.90;99.90
46458;DHT22;32155;54.076;12.092;2024-01-25T07:04:30;7.00;99.90
46458;DHT22;32155;54.076;12.092;2024-01-25T07:06:56;7.00;99.90
46458;DHT22;32155;54.076;12.092;2024-01-25T07:09:22;7.00;99.90
46458;DHT22;32155;54.076;12.092;2024-01-25T07:11:47;7.00;99.90
46458;DHT22;32155;54.076;12.092;2024-01-25T07:14:13;6.90;99.90
46458;DHT22;32155;54.076;12.092;2024-01-25T07:16:38;6.90;99.90
46458;DHT22;32155;54.076;12.092;2024-01-25T07:19:04;7.00;99.90
46458;DHT22;32155;54.076;12.092;2024-01-25T07:21:30;7.00;99.90
46458;DHT22;32155;54.076;12.092;2024-01-25T07:24:00;7.10;99.90
46458;DHT22;32155;54.076;12.092;2024-01-25T07:26:28;7.00;99.90
46458;DHT22;32155;54.076;12.092;2024-01-25T07:28:55;7.00;99.90
46458;DHT22;32155;54.076;12.092;2024-01-25T07:31:24;7.00;99.90
46458;DHT22;32155;54.076;12.092;2024-01-25T07:33:50;7.00;99.90
46458;DHT22;32155;54.076;12.092;2024-01-25T07:36:16;7.00;99.90
46458;DHT22;32155;54.076;12.092;2024-01-25T07:38:43;7.00;99.90
46458;DHT22;32155;54.076;12.092;2024-01-25T07:41:08;7.00;99.90
46458;DHT22;32155;54.076;12.092;2024-01-25T07:43:34;7.10;99.90
46458;DHT22;32155;54.076;12.092;2024-01-25T07:45:59;7.00;99.90
46458;DHT22;32155;54.076;12.092;2024-01-25T07:48:25;7.10;99.90
46458;DHT22;32155;54.076;12.092;2024-01-25T07:50:50;7.10;99.90
46458;DHT22;32155;54.076;12.092;2024-01-25T07:53:16;7.20;99.90
46458;DHT22;32155;54.076;12.092;2024-01-25T07:55:43;7.10;99.90
46458;DHT22;32155;54.076;12.092;2024-01-25T07:58:11;7.10;99.90
46458;DHT22;32155;54.076;12.092;2024-01-25T08:00:37;7.20;99.90
46458;DHT22;32155;54.076;12.092;2024-01-25T08:03:02;7.20;99.90
46458;DHT22;32155;54.076;12.092;2024-01-25T08:05:28;7.20;99.90
46458;DHT22;32155;54.076;12.092;2024-01-25T08:07:53;7.30;99.90
46458;DHT22;32155;54.076;12.092;2024-01-25T08:10:21;7.30;99.90
46458;DHT22;32155;54.076;12.092;2024-01-25T08:12:47;7.40;99.90
46458;DHT22;32155;54.076;12.092;2024-01-25T08:15:13;7.40;99.90
46458;DHT22;32155;54.076;12.092;2024-01-25T08:17:39;7.60;99.90
46458;DHT22;32155;54.076;12.092;2024-01-25T08:20:05;7.60;99.90
46458;DHT22;32155;54.076;12.092;2024-01-25T08:22:34;7.60;99.90
46458;DHT22;32155;54.076;12.092;2024-01-25T08:24:59;7.60;99.90
46458;DHT22;32155;54.076;12.092;2024-01-25T08:27:25;7.70;99.90
46458;DHT22;32155;54.076;12.092;2024-01-25T08:29:50;7.80;99.90
46458;DHT22;32155;54.076;12.092;2024-01-25T08:32:16;7.80;99.90
46458;DHT22;32155;54.076;12.092;2024-01-25T08:34:42;8.00;99.90
46458;DHT22;32155;54.076;12.092;2024-01-25T08:37:07;8.10;99.90
46458;DHT22;32155;54.076;12.092;2024-01-25T08:39:33;8.10;99.90
46458;DHT22;32155;54.076;12.092;2024-01-25T08:41:58;8.30;99.90
46458;DHT22;32155;54.076;12.092;2024-01-25T08:44:27;8.40;99.90
46458;DHT22;32155;54.076;12.092;2024-01-25T08:46:52;8.40;99.90
46458;DHT22;32155;54.076;12.092;2024-01-25T08:49:20;8.50;99.90
46458;DHT22;32155;54.076;12.092;2024-01-25T08:51:46;8.80;99.90
46458;DHT22;32155;54.076;12.092;2024-01-25T08:54:11;8.70;99.90
46458;DHT22;32155;54.076;12.092;2024-01-25T08:56:37;8.90;99.90
46458;DHT22;32155;54.076;12.092;2024-01-25T08:59:09;9.00;99.90
46458;DHT22;32155;54.076;12.092;2024-01-25T09:01:37;8.80;99.90
46458;DHT22;32155;54.076;12.092;2024-01-25T09:04:03;8.60;99.90
46458;DHT22;32155;54.076;12.092;2024-01-25T09:06:29;8.50;99.90
46458;DHT22;32155;54.076;12.092;2024-01-25T09:08:55;8.40;99.90
46458;DHT22;32155;54.076;12.092;2024-01-25T09:11:21;8.40;99.90
46458;DHT22;32155;54.076;12.092;2024-01-25T09:13:46;8.50;99.90
46458;DHT22;32155;54.076;12.092;2024-01-25T09:16:13;8.60;99.90
46458;DHT22;32155;54.076;12.092;2024-01-25T09:18:41;8.50;99.90
46458;DHT22;32155;54.076;12.092;2024-01-25T09:21:07;8.50;99.90
46458;DHT22;32155;54.076;12.092;2024-01-25T09:23:33;8.80;99.90
46458;DHT22;32155;54.076;12.092;2024-01-25T09:25:58;9.50;99.90
46458;DHT22;32155;54.076;12.092;2024-01-25T09:28:24;9.60;99.90
46458;DHT22;32155;54.076;12.092;2024-01-25T09:30:49;9.90;99.90
46458;DHT22;32155;54.076;12.092;2024-01-25T09:33:15;11.80;99.90
46458;DHT22;32155;54.076;12.092;2024-01-25T09:35:40;12.90;99.90
46458;DHT22;32155;54.076;12.092;2024-01-25T09:38:06;13.90;99.90
46458;DHT22;32155;54.076;12.092;2024-01-25T09:40:32;15.10;99.90
46458;DHT22;32155;54.076;12.092;2024-01-25T09:42:58;15.80;99.90
46458;DHT22;32155;54.076;12.092;2024-01-25T09:45:24;16.10;99.90
46458;DHT22;32155;54.076;12.092;2024-01-25T09:47:50;16.80;99.90
46458;DHT22;32155;54.076;12.092;2024-01-25T09:50:15;17.20;99.90
46458;DHT22;32155;54.076;12.092;2024-01-25T09:52:43;17.70;99.90
46458;DHT22;32155;54.076;12.092;2024-01-25T09:55:24;17.70;99.90
46458;DHT22;32155;54.076;12.092;2024-01-25T09:57:51;18.20;99.90
46458;DHT22;32155;54.076;12.092;2024-01-25T10:00:18;18.30;99.90
46458;DHT22;32155;54.076;12.092;2024-01-25T10:02:50;17.50;99.90
46458;DHT22;32155;54.076;12.092;2024-01-25T10:05:18;16.80;99.90
46458;DHT22;32155;54.076;12.092;2024-01-25T10:07:45;17.40;99.90
46458;DHT22;32155;54.076;12.092;2024-01-25T10:10:11;16.60;99.90
46458;DHT22;32155;54.076;12.092;2024-01-25T10:12:37;14.80;99.90
46458;DHT22;32155;54.076;12.092;2024-01-25T10:15:06;14.50;99.90
46458;DHT22;32155;54.076;12.092;2024-01-25T10:17:32;15.30;99.90
46458;DHT22;32155;54.076;12.092;2024-01-25T10:20:04;14.10;99.90
46458;DHT22;32155;54.076;12.092;2024-01-25T10:22:39;13.40;99.90
46458;DHT22;32155;54.076;12.092;2024-01-25T10:25:11;13.20;99.90
46458;DHT22;32155;54.076;12.092;2024-01-25T10:27:37;14.10;99.90
46458;DHT22;32155;54.076;12.092;2024-01-25T10:30:05;14.30;99.90
46458;DHT22;32155;54.076;12.092;2024-01-25T10:32:31;14.10;99.90
46458;DHT22;32155;54.076;12.092;2024-01-25T10:34:58;13.90;99.90
46458;DHT22;32155;54.076;12.092;2024-01-25T10:37:24;12.90;99.90
46458;DHT22;32155;54.076;12.092;2024-01-25T10:39:50;13.80;99.90
46458;DHT22;32155;54.076;12.092;2024-01-25T10:42:17;13.40;99.90
46458;DHT22;32155;54.076;12.092;2024-01-25T10:44:43;14.40;99.90
46458;DHT22;32155;54.076;12.092;2024-01-25T10:47:11;13.70;99.90
46458;DHT22;32155;54.076;12.092;2024-01-25T10:49:37;14.30;99.90
46458;DHT22;32155;54.076;12.092;2024-01-25T10:52:04;16.00;99.90
46458;DHT22;32155;54.076;12.092;2024-01-25T10:54:30;16.30;99.90
46458;DHT22;32155;54.076;12.092;2024-01-25T10:56:56;16.10;99.90
46458;DHT22;32155;54.076;12.092;2024-01-25T10:59:26;16.10;99.90
46458;DHT22;32155;54.076;12.092;2024-01-25T11:01:54;17.60;99.90
46458;DHT22;32155;54.076;12.092;2024-01-25T11:04:20;18.80;99.90
46458;DHT22;32155;54.076;12.092;2024-01-25T11:06:46;19.10;99.90
46458;DHT22;32155;54.076;12.092;2024-01-25T11:09:19;19.80;99.90
46458;DHT22;32155;54.076;12.092;2024-01-25T11:11:46;20.10;99.90
46458;DHT22;32155;54.076;12.092;2024-01-25T11:14:14;21.00;99.90
46458;DHT22;32155;54.076;12.092;2024-01-25T11:16:42;20.70;99.90
46458;DHT22;32155;54.076;12.092;2024-01-25T11:19:43;21.70;99.90
46458;DHT22;32155;54.076;12.092;2024-01-25T11:22:02;20.60;99.90
46458;DHT22;32155;54.076;12.092;2024-01-25T11:24:28;22.40;99.90
46458;DHT22;32155;54.076;12.092;2024-01-25T11:26:56;22.70;99.90
46458;DHT22;32155;54.076;12.092;2024-01-25T11:29:25;22.20;99.90
46458;DHT22;32155;54.076;12.092;2024-01-25T11:31:52;22.00;99.90
46458;DHT22;32155;54.076;12.092;2024-01-25T11:34:19;22.20;99.90
46458;DHT22;32155;54.076;12.092;2024-01-25T11:36:46;21.40;99.90
46458;DHT22;32155;54.076;12.092;2024-01-25T11:39:12;21.00;99.90
46458;DHT22;32155;54.076;12.092;2024-01-25T11:41:38;21.50;99.90
46458;DHT22;32155;54.076;12.092;2024-01-25T11:44:05;21.80;99.90
46458;DHT22;32155;54.076;12.092;2024-01-25T11:46:31;21.30;99.90
46458;DHT22;32155;54.076;12.092;2024-01-25T11:49:00;20.80;99.90
46458;DHT22;32155;54.076;12.092;2024-01-25T11:51:27;20.90;99.90
46458;DHT22;32155;54.076;12.092;2024-01-25T11:53:56;19.10;99.90
46458;DHT22;32155;54.076;12.092;2024-01-25T11:56:26;18.40;99.90
46458;DHT22;32155;54.076;12.092;2024-01-25T11:58:53;18.10;99.90
46458;DHT22;32155;54.076;12.092;2024-01-25T12:01:22;18.50;99.90
46458;DHT22;32155;54.076;12.092;2024-01-25T12:03:48;18.30;99.90
46458;DHT22;32155;54.076;12.092;2024-01-25T12:06:14;17.90;99.90
46458;DHT22;32155;54.076;12.092;2024-01-25T12:08:40;17.60;99.90
46458;DHT22;32155;54.076;12.092;2024-01-25T12:11:07;18.40;99.90
46458;DHT22;32155;54.076;12.092;2024-01-25T12:13:42;18.80;99.90
46458;DHT22;32155;54.076;12.092;2024-01-25T12:16:14;19.40;99.90
46458;DHT22;32155;54.076;12.092;2024-01-25T12:18:40;20.80;99.90
46458;DHT22;32155;54.076;12.092;2024-01-25T12:21:07;21.90;99.90
46458;DHT22;32155;54.076;12.092;2024-01-25T12:23:34;22.30;99.90
46458;DHT22;32155;54.076;12.092;2024-01-25T12:26:01;22.30;99.60
46458;DHT22;32155;54.076;12.092;2024-01-25T12:28:31;22.00;99.20
46458;DHT22;32155;54.076;12.092;2024-01-25T12:31:04;21.80;99.90
46458;DHT22;32155;54.076;12.092;2024-01-25T12:33:34;21.10;99.60
46458;DHT22;32155;54.076;12.092;2024-01-25T12:36:01;20.90;99.90
46458;DHT22;32155;54.076;12.092;2024-01-25T12:38:28;18.90;99.90
46458;DHT22;32155;54.076;12.092;2024-01-25T12:40:56;18.80;99.90
46458;DHT22;32155;54.076;12.092;2024-01-25T12:43:22;19.10;99.90
46458;DHT22;32155;54.076;12.092;2024-01-25T12:45:48;19.90;99.90
46458;DHT22;32155;54.076;12.092;2024-01-25T12:48:15;19.90;99.90
46458;DHT22;32155;54.076;12.092;2024-01-25T12:50:41;19.90;99.90
46458;DHT22;32155;54.076;12.092;2024-01-25T12:53:06;19.20;99.90
46458;DHT22;32155;54.076;12.092;2024-01-25T12:55:32;16.50;99.90
46458;DHT22;32155;54.076;12.092;2024-01-25T12:58:02;15.80;99.90
46458;DHT22;32155;54.076;12.092;2024-01-25T13:00:28;15.40;99.90
46458;DHT22;32155;54.076;12.092;2024-01-25T13:02:54;15.00;99.90
46458;DHT22;32155;54.076;12.092;2024-01-25T13:05:22;15.50;99.90
46458;DHT22;32155;54.076;12.092;2024-01-25T13:07:52;15.30;99.90
46458;DHT22;32155;54.076;12.092;2024-01-25T13:10:21;14.50;99.90
46458;DHT22;32155;54.076;12.092;2024-01-25T13:12:47;14.40;99.90
46458;DHT22;32155;54.076;12.092;2024-01-25T13:15:13;14.50;99.90
46458;DHT22;32155;54.076;12.092;2024-01-25T13:17:42;13.80;99.90
46458;DHT22;32155;54.076;12.092;2024-01-25T13:20:08;13.30;99.90
46458;DHT22;32155;54.076;12.092;2024-01-25T13:22:34;12.80;99.90
46458;DHT22;32155;54.076;12.092;2024-01-25T13:25:01;12.20;99.90
46458;DHT22;32155;54.076;12.092;2024-01-25T13:27:27;12.00;99.90
46458;DHT22;32155;54.076;12.092;2024-01-25T13:29:55;12.30;99.90
46458;DHT22;32155;54.076;12.092;2024-01-25T13:32:25;11.70;99.90
46458;DHT22;32155;54.076;12.092;2024-01-25T13:34:51;11.80;99.90
46458;DHT22;32155;54.076;12.092;2024-01-25T13:37:17;12.20;99.90
46458;DHT22;32155;54.076;12.092;2024-01-25T13:39:43;12.90;99.90
46458;DHT22;32155;54.076;12.092;2024-01-25T13:42:10;13.30;99.90
46458;DHT22;32155;54.076;12.092;2024-01-25T13:44:37;13.30;99.90
46458;DHT22;32155;54.076;12.092;2024-01-25T13:47:04;13.60;99.90
46458;DHT22;32155;54.076;12.092;2024-01-25T13:49:30;13.10;99.90
46458;DHT22;32155;54.076;12.092;2024-01-25T13:52:00;13.10;99.90
46458;DHT22;32155;54.076;12.092;2024-01-25T13:54:32;13.30;99.90
46458;DHT22;32155;54.076;12.092;2024-01-25T13:57:01;13.70;99.90
46458;DHT22;32155;54.076;12.092;2024-01-25T13:59:28;13.40;99.90
46458;DHT22;32155;54.076;12.092;2024-01-25T14:01:56;14.50;99.90
46458;DHT22;32155;54.076;12.092;2024-01-25T14:04:26;14.90;99.90
46458;DHT22;32155;54.076;12.092;2024-01-25T14:06:52;14.50;99.90
46458;DHT22;32155;54.076;12.092;2024-01-25T14:09:25;13.60;99.90
46458;DHT22;32155;54.076;12.092;2024-01-25T14:11:51;12.50;99.90
46458;DHT22;32155;54.076;12.092;2024-01-25T14:14:16;12.00;99.90
46458;DHT22;32155;54.076;12.092;2024-01-25T14:16:42;11.70;99.90
46458;DHT22;32155;54.076;12.092;2024-01-25T14:19:07;11.30;99.90
46458;DHT22;32155;54.076;12.092;2024-01-25T14:21:33;11.10;99.90
46458;DHT22;32155;54.076;12.092;2024-01-25T14:23:58;10.70;99.90
46458;DHT22;32155;54.076;12.092;2024-01-25T14:26:24;10.50;99.90
46458;DHT22;32155;54.076;12.092;2024-01-25T14:28:49;10.20;99.90
46458;DHT22;32155;54.076;12.092;2024-01-25T14:31:15;9.90;99.90
46458;DHT22;32155;54.076;12.092;2024-01-25T14:33:42;9.70;99.90
46458;DHT22;32155;54.076;12.092;2024-01-25T14:36:08;9.50;99.90
46458;DHT22;32155;54.076;12.092;2024-01-25T14:38:34;9.40;99.90
46458;DHT22;32155;54.076;12.092;2024-01-25T14:40:59;9.30;99.90
46458;DHT22;32155;54.076;12.092;2024-01-25T14:43:25;9.10;99.90
46458;DHT22;32155;54.076;12.092;2024-01-25T14:45:50;9.00;99.90
46458;DHT22;32155;54.076;12.092;2024-01-25T14:48:16;9.00;99.90
46458;DHT22;32155;54.076;12.092;2024-01-25T14:50:42;8.90;99.90
46458;DHT22;32155;54.076;12.092;2024-01-25T14:53:07;8.70;99.90
46458;DHT22;32155;54.076;12.092;2024-01-25T14:55:33;8.60;99.90
46458;DHT22;32155;54.076;12.092;2024-01-25T14:57:59;8.50;99.90
46458;DHT22;32155;54.076;12.092;2024-01-25T15:00:24;8.50;99.90
46458;DHT22;32155;54.076;12.092;2024-01-25T15:02:50;8.40;99.90
46458;DHT22;32155;54.076;12.092;2024-01-25T15:05:15;8.40;99.90
46458;DHT22;32155;54.076;12.092;2024-01-25T15:07:41;8.30;99.90
46458;DHT22;32155;54.076;12.092;2024-01-25T15:10:08;8.20;99.90
46458;DHT22;32155;54.076;12.092;2024-01-25T15:12:33;8.10;99.90
46458;DHT22;32155;54.076;12.092;2024-01-25T15:14:59;8.00;99.90
46458;DHT22;32155;54.076;12.092;2024-01-25T15:17:24;7.80;99.90
46458;DHT22;32155;54.076;12.092;2024-01-25T15:19:50;7.70;99.90
46458;DHT22;32155;54.076;12.092;2024-01-25T15:22:18;7.50;99.90